Time;durP1;ratioP1;P1;durP2;ratioP2;P2;SDS_P1;SDS_P2;PMS_P1;PMS_P2;Temp;Humidity;BMP_temperature;BMP_pressure;BME280_temperature;BME280_humidity;BME280_pressure;Samples;Min_cycle;Max_cycle;Signal;HPM_P1;HPM_P2
2022/09/01 00:02:19;;;;;;;0.00;0.00;;;16.80;99.90;;;;;;5050473;28;20608;-58
2022/09/01 00:04:46;;;;;;;0.00;0.00;;;16.80;99.90;;;;;;5050789;28;20708;-58
2022/09/01 00:07:13;;;;;;;0.10;0.10;;;16.70;99.90;;;;;;5050600;28;20189;-59
2022/09/01 00:09:39;;;;;;;0.00;0.00;;;16.70;99.90;;;;;;5050895;28;20205;-58
2022/09/01 00:12:07;;;;;;;0.00;0.00;;;16.70;99.90;;;;;;5050674;28;20181;-58
2022/09/01 00:14:37;;;;;;;0.00;0.00;;;16.70;99.90;;;;;;5050939;28;20268;-58
2022/09/01 00:17:06;;;;;;;0.00;0.00;;;16.60;99.90;;;;;;5054563;28;20189;-59
2022/09/01 00:19:32;;;;;;;0.45;0.45;;;16.60;99.90;;;;;;5055155;28;20189;-58
2022/09/01 00:21:59;;;;;;;0.00;0.00;;;16.60;99.90;;;;;;5054625;28;20244;-58
2022/09/01 00:24:26;;;;;;;0.00;0.00;;;16.60;99.90;;;;;;5055191;28;20189;-59
2022/09/01 00:26:52;;;;;;;0.00;0.00;;;16.50;99.90;;;;;;5054412;28;20185;-58
2022/09/01 00:29:18;;;;;;;0.00;0.00;;;16.50;99.90;;;;;;5054646;28;20181;-58
2022/09/01 00:31:44;;;;;;;0.00;0.00;;;16.40;99.90;;;;;;5054459;28;20201;-58
2022/09/01 00:34:10;;;;;;;0.25;0.25;;;16.40;99.90;;;;;;5054169;28;20596;-59
2022/09/01 00:36:36;;;;;;;0.00;0.00;;;16.40;99.90;;;;;;5056142;28;20181;-58
2022/09/01 00:39:04;;;;;;;0.00;0.00;;;16.40;99.90;;;;;;5054033;28;20185;-58
2022/09/01 00:41:32;;;;;;;0.00;0.00;;;16.40;99.90;;;;;;5054386;28;20224;-59
2022/09/01 00:44:04;;;;;;;0.00;0.00;;;16.40;99.90;;;;;;5054454;28;20196;-58
2022/09/01 00:46:36;;;;;;;0.00;0.00;;;16.30;99.90;;;;;;5053836;28;20209;-58
2022/09/01 00:49:08;;;;;;;0.00;0.00;;;16.30;99.90;;;;;;5053996;28;20181;-58
2022/09/01 00:51:37;;;;;;;0.00;0.00;;;16.30;99.90;;;;;;5053919;28;20185;-59
2022/09/01 00:54:05;;;;;;;0.10;0.10;;;16.20;99.90;;;;;;5053835;28;20188;-58
2022/09/01 00:56:31;;;;;;;0.00;0.00;;;16.20;99.90;;;;;;5054051;28;20184;-58
2022/09/01 00:58:58;;;;;;;0.00;0.00;;;16.20;99.90;;;;;;5046222;28;20181;-58
2022/09/01 01:01:24;;;;;;;0.00;0.00;;;16.20;99.90;;;;;;5053688;28;20225;-58
2022/09/01 01:03:49;;;;;;;0.00;0.00;;;16.20;99.90;;;;;;5053832;28;20527;-58
2022/09/01 01:06:18;;;;;;;0.00;0.00;;;16.20;99.90;;;;;;5053934;28;20512;-58
2022/09/01 01:08:57;;;;;;;0.00;0.00;;;16.20;99.90;;;;;;5054337;28;20181;-58
2022/09/01 01:11:31;;;;;;;0.00;0.00;;;16.20;99.90;;;;;;5053436;28;20659;-58
2022/09/01 01:14:10;;;;;;;0.00;0.00;;;16.20;99.90;;;;;;5049146;28;20177;-58
2022/09/01 01:23:00;;;;;;;0.00;0.00;;;16.20;99.90;;;;;;5052639;28;20188;-58
2022/09/01 01:25:27;;;;;;;0.30;0.30;;;16.20;99.90;;;;;;5054073;28;20197;-60
2022/09/01 01:28:07;;;;;;;0.03;0.03;;;16.20;99.90;;;;;;5053177;28;20192;-58
2022/09/01 01:30:35;;;;;;;0.00;0.00;;;16.20;99.90;;;;;;5053073;28;20177;-59
2022/09/01 01:33:02;;;;;;;0.00;0.00;;;16.20;99.90;;;;;;5050220;28;20188;-60
2022/09/01 01:35:28;;;;;;;0.20;0.20;;;16.20;99.90;;;;;;5053362;28;20178;-62
2022/09/01 01:37:54;;;;;;;0.10;0.10;;;16.20;99.90;;;;;;5052958;28;20184;-61
2022/09/01 01:40:21;;;;;;;0.00;0.00;;;16.20;99.90;;;;;;5053158;28;20217;-60
2022/09/01 01:42:50;;;;;;;0.15;0.15;;;16.20;99.90;;;;;;5052884;28;20181;-58
2022/09/01 01:45:19;;;;;;;0.00;0.00;;;16.20;99.90;;;;;;5053234;28;20169;-59
2022/09/01 01:47:49;;;;;;;0.00;0.00;;;16.20;99.90;;;;;;5052012;28;20269;-60
2022/09/01 01:50:14;;;;;;;0.00;0.00;;;16.10;99.90;;;;;;5052769;28;20205;-61
2022/09/01 01:52:41;;;;;;;0.00;0.00;;;16.10;99.90;;;;;;5052499;28;20676;-60
2022/09/01 01:55:11;;;;;;;0.00;0.00;;;16.10;99.90;;;;;;5052900;28;20185;-60
2022/09/01 01:57:48;;;;;;;0.00;0.00;;;16.00;99.90;;;;;;5052774;28;20255;-60
2022/09/01 02:00:18;;;;;;;0.43;0.43;;;16.00;99.90;;;;;;5043271;28;20308;-60
2022/09/01 02:02:51;;;;;;;0.00;0.00;;;16.00;99.90;;;;;;5052371;28;20221;-60
2022/09/01 02:05:24;;;;;;;0.00;0.00;;;16.00;99.90;;;;;;5052759;28;20185;-60
2022/09/01 02:07:54;;;;;;;0.00;0.00;;;15.90;99.90;;;;;;5052482;28;20264;-60
2022/09/01 02:10:22;;;;;;;0.00;0.00;;;15.80;99.90;;;;;;5052438;28;20193;-60
2022/09/01 02:12:48;;;;;;;0.00;0.00;;;15.80;99.90;;;;;;5052454;28;20671;-60
2022/09/01 02:15:14;;;;;;;0.00;0.00;;;15.70;99.90;;;;;;5052530;28;20181;-60
2022/09/01 02:17:41;;;;;;;0.10;0.10;;;15.70;99.90;;;;;;5052095;28;20186;-60
2022/09/01 02:20:09;;;;;;;0.00;0.00;;;15.70;99.90;;;;;;5051776;28;20689;-60
2022/09/01 02:22:36;;;;;;;0.00;0.00;;;15.60;99.90;;;;;;5051664;28;20182;-60
2022/09/01 02:25:04;;;;;;;0.00;0.00;;;15.60;99.90;;;;;;5052312;28;20181;-60
2022/09/01 02:27:32;;;;;;;0.00;0.00;;;15.60;99.90;;;;;;5052150;28;20338;-60
2022/09/01 02:29:59;;;;;;;0.00;0.00;;;15.70;99.90;;;;;;5052331;28;20282;-58
2022/09/01 02:32:24;;;;;;;0.00;0.00;;;15.60;99.90;;;;;;5052053;28;20169;-59
2022/09/01 02:34:52;;;;;;;0.00;0.00;;;15.60;99.90;;;;;;5052283;28;20679;-58
2022/09/01 02:37:24;;;;;;;0.00;0.00;;;15.60;99.90;;;;;;5051804;28;20173;-58
2022/09/01 02:39:52;;;;;;;0.00;0.00;;;15.60;99.90;;;;;;5051673;28;20181;-58
2022/09/01 02:42:23;;;;;;;0.00;0.00;;;15.60;99.90;;;;;;5051874;28;20216;-58
2022/09/01 02:44:49;;;;;;;0.00;0.00;;;15.60;99.90;;;;;;5051306;28;20201;-58
2022/09/01 02:47:14;;;;;;;0.00;0.00;;;15.60;99.90;;;;;;5050717;28;20208;-58
2022/09/01 02:49:41;;;;;;;0.00;0.00;;;15.60;99.90;;;;;;5051736;28;20213;-58
2022/09/01 02:52:07;;;;;;;0.00;0.00;;;15.60;99.90;;;;;;5051792;28;20707;-58
2022/09/01 02:54:33;;;;;;;0.00;0.00;;;15.60;99.90;;;;;;5051750;28;20178;-58
2022/09/01 02:56:59;;;;;;;0.00;0.00;;;15.50;99.90;;;;;;5051109;28;20177;-58
2022/09/01 02:59:27;;;;;;;0.00;0.00;;;15.50;99.90;;;;;;5051750;28;20189;-57
2022/09/01 03:01:53;;;;;;;0.00;0.00;;;15.50;99.90;;;;;;5050951;28;20225;-58
2022/09/01 03:04:21;;;;;;;0.00;0.00;;;15.50;99.90;;;;;;5050957;28;20188;-58
2022/09/01 03:06:48;;;;;;;0.00;0.00;;;15.50;99.90;;;;;;5050435;28;20180;-58
2022/09/01 03:09:16;;;;;;;0.00;0.00;;;15.50;99.90;;;;;;5051084;28;20188;-58
2022/09/01 03:11:45;;;;;;;0.25;0.25;;;15.50;99.90;;;;;;5050332;28;20186;-57
2022/09/01 03:14:11;;;;;;;0.00;0.00;;;15.50;99.90;;;;;;5050758;28;20173;-57
2022/09/01 03:16:37;;;;;;;0.15;0.15;;;15.40;99.90;;;;;;5050812;28;20185;-58
2022/09/01 03:19:07;;;;;;;0.00;0.00;;;15.40;99.90;;;;;;5051006;28;20192;-58
2022/09/01 03:21:34;;;;;;;0.00;0.00;;;15.50;99.90;;;;;;5050225;28;20287;-58
2022/09/01 03:24:02;;;;;;;0.00;0.00;;;15.50;99.90;;;;;;5050591;28;20266;-58
2022/09/01 03:26:28;;;;;;;0.10;0.10;;;15.40;99.90;;;;;;5050223;28;20184;-57
2022/09/01 03:28:54;;;;;;;0.00;0.00;;;15.40;99.90;;;;;;5050124;28;20236;-57
2022/09/01 03:31:20;;;;;;;0.00;0.00;;;15.40;99.90;;;;;;5050675;28;20181;-57
2022/09/01 03:33:46;;;;;;;0.05;0.05;;;15.40;99.90;;;;;;5049301;28;20207;-57
2022/09/01 03:36:18;;;;;;;0.00;0.00;;;15.40;99.90;;;;;;5050673;28;20177;-56
2022/09/01 03:38:47;;;;;;;0.00;0.00;;;15.30;99.90;;;;;;5050440;28;20177;-57
2022/09/01 03:41:16;;;;;;;0.00;0.00;;;15.30;99.90;;;;;;5050149;28;20224;-57
2022/09/01 03:43:42;;;;;;;0.00;0.00;;;15.30;99.90;;;;;;5050055;28;20181;-58
2022/09/01 03:46:09;;;;;;;0.00;0.00;;;15.30;99.90;;;;;;5049709;28;20264;-57
2022/09/01 03:48:34;;;;;;;0.00;0.00;;;15.30;99.90;;;;;;5049916;28;20652;-58
2022/09/01 03:51:01;;;;;;;0.00;0.00;;;15.30;99.90;;;;;;5048845;28;20185;-57
2022/09/01 03:53:29;;;;;;;0.00;0.00;;;15.30;99.90;;;;;;5049842;28;20252;-56
2022/09/01 03:55:56;;;;;;;0.00;0.00;;;15.20;99.90;;;;;;5050284;28;20181;-58
2022/09/01 03:58:23;;;;;;;0.00;0.00;;;15.20;99.90;;;;;;5050332;28;20166;-58
2022/09/01 04:00:54;;;;;;;0.00;0.00;;;15.20;99.90;;;;;;5049992;28;20218;-60
2022/09/01 04:03:22;;;;;;;0.10;0.10;;;15.20;99.90;;;;;;5014311;28;1032159;-59
2022/09/01 04:05:50;;;;;;;0.00;0.00;;;15.20;99.90;;;;;;5050890;28;20208;-60
2022/09/01 04:08:17;;;;;;;0.00;0.00;;;15.30;99.90;;;;;;5051154;28;20232;-59
2022/09/01 04:10:49;;;;;;;0.00;0.00;;;15.20;99.90;;;;;;5050908;28;20181;-60
2022/09/01 04:13:24;;;;;;;0.00;0.00;;;15.30;99.90;;;;;;5050262;28;20264;-58
2022/09/01 04:15:50;;;;;;;0.00;0.00;;;15.30;99.90;;;;;;5050777;28;20645;-58
2022/09/01 04:18:20;;;;;;;0.28;0.28;;;15.30;99.90;;;;;;5050940;28;20220;-58
2022/09/01 04:20:48;;;;;;;0.60;0.60;;;15.20;99.90;;;;;;5051028;28;20673;-58
2022/09/01 04:23:15;;;;;;;0.00;0.00;;;15.20;99.90;;;;;;5051281;28;20247;-58
2022/09/01 04:25:41;;;;;;;0.00;0.00;;;15.20;99.90;;;;;;5051067;28;20177;-58
2022/09/01 04:28:13;;;;;;;0.00;0.00;;;15.20;99.90;;;;;;5051217;28;20174;-58
2022/09/01 04:30:42;;;;;;;0.00;0.00;;;15.20;99.90;;;;;;5051109;28;20663;-59
2022/09/01 04:33:09;;;;;;;0.00;0.00;;;15.20;99.90;;;;;;5051249;28;20193;-58
2022/09/01 04:35:39;;;;;;;0.00;0.00;;;15.20;99.90;;;;;;5050977;28;20185;-58
2022/09/01 04:38:07;;;;;;;0.05;0.05;;;15.20;99.90;;;;;;5051300;28;20174;-58
2022/09/01 04:40:36;;;;;;;0.00;0.00;;;15.10;99.90;;;;;;5050846;28;20240;-58
2022/09/01 04:43:02;;;;;;;0.00;0.00;;;15.10;99.90;;;;;;5051040;28;20182;-58
2022/09/01 04:45:27;;;;;;;0.00;0.00;;;15.10;99.90;;;;;;5050925;28;20311;-58
2022/09/01 04:47:54;;;;;;;0.00;0.00;;;15.10;99.90;;;;;;5051100;28;20165;-58
2022/09/01 04:50:20;;;;;;;0.00;0.00;;;15.10;99.90;;;;;;5050783;28;20274;-58
2022/09/01 04:52:49;;;;;;;0.00;0.00;;;15.10;99.90;;;;;;5051027;28;20261;-58
2022/09/01 04:55:18;;;;;;;0.00;0.00;;;15.10;99.90;;;;;;5050771;28;20511;-58
2022/09/01 04:57:46;;;;;;;0.00;0.00;;;15.10;99.90;;;;;;5050897;28;20174;-58
2022/09/01 05:00:22;;;;;;;0.00;0.00;;;15.00;99.90;;;;;;5050749;28;20205;-58
2022/09/01 05:02:53;;;;;;;0.43;0.43;;;15.10;99.90;;;;;;5054017;28;20332;-58
2022/09/01 05:05:22;;;;;;;0.00;0.00;;;15.10;99.90;;;;;;5051355;28;20185;-58
2022/09/01 05:07:51;;;;;;;0.00;0.00;;;15.10;99.90;;;;;;5054454;28;20180;-58
2022/09/01 05:10:18;;;;;;;0.00;0.00;;;15.20;99.90;;;;;;5054356;28;20636;-58
2022/09/01 05:12:44;;;;;;;0.10;0.10;;;15.20;99.90;;;;;;5034389;28;20281;-58
2022/09/01 05:15:12;;;;;;;0.00;0.00;;;15.30;99.90;;;;;;5043361;28;20173;-58
2022/09/01 05:17:39;;;;;;;0.00;0.00;;;15.30;99.90;;;;;;5054374;28;20185;-58
2022/09/01 05:20:06;;;;;;;0.00;0.00;;;15.40;99.90;;;;;;5054008;28;20177;-58
2022/09/01 05:22:32;;;;;;;0.30;0.30;;;15.40;99.90;;;;;;5053852;28;20185;-58
2022/09/01 05:25:10;;;;;;;0.00;0.00;;;15.60;99.90;;;;;;5052594;28;20535;-58
2022/09/01 05:27:38;;;;;;;0.10;0.10;;;15.60;99.90;;;;;;5054103;28;20272;-58
2022/09/01 05:30:07;;;;;;;0.00;0.00;;;15.70;99.90;;;;;;5053958;28;20575;-58
2022/09/01 05:32:35;;;;;;;0.00;0.00;;;15.80;99.90;;;;;;5054012;28;20181;-58
2022/09/01 05:35:05;;;;;;;0.00;0.00;;;15.90;99.90;;;;;;5053408;28;20166;-58
2022/09/01 05:37:31;;;;;;;0.00;0.00;;;16.00;99.90;;;;;;5053988;28;20189;-58
2022/09/01 05:39:57;;;;;;;0.03;0.03;;;16.10;99.90;;;;;;5053507;28;20184;-58
2022/09/01 05:42:23;;;;;;;0.00;0.00;;;16.20;99.90;;;;;;5053249;28;20196;-59
2022/09/01 05:44:49;;;;;;;0.00;0.00;;;16.30;99.90;;;;;;5051889;28;20272;-58
2022/09/01 05:47:15;;;;;;;0.00;0.00;;;16.50;99.90;;;;;;5053689;28;20189;-58
2022/09/01 05:49:40;;;;;;;0.00;0.00;;;16.60;99.90;;;;;;5053250;28;20534;-57
2022/09/01 05:52:08;;;;;;;0.10;0.10;;;16.60;99.90;;;;;;5053526;28;20186;-58
2022/09/01 05:54:34;;;;;;;0.00;0.00;;;16.70;99.90;;;;;;5053542;28;20189;-58
2022/09/01 05:57:01;;;;;;;0.00;0.00;;;16.90;99.90;;;;;;5053223;28;20184;-58
2022/09/01 05:59:30;;;;;;;0.00;0.00;;;17.30;99.90;;;;;;5053353;28;20185;-58
2022/09/01 06:01:56;;;;;;;0.00;0.00;;;17.60;99.90;;;;;;5052923;28;20248;-58
2022/09/01 06:04:24;;;;;;;0.00;0.00;;;18.00;99.90;;;;;;5053324;28;20648;-58
2022/09/01 06:06:50;;;;;;;0.00;0.00;;;18.40;99.90;;;;;;5053182;28;20316;-58
2022/09/01 06:09:22;;;;;;;0.00;0.00;;;18.90;99.90;;;;;;5053344;28;20169;-58
2022/09/01 06:11:47;;;;;;;0.00;0.00;;;19.30;99.90;;;;;;5052983;28;20205;-58
2022/09/01 06:14:15;;;;;;;0.00;0.00;;;19.70;99.90;;;;;;5052337;28;20209;-58
2022/09/01 06:16:41;;;;;;;0.00;0.00;;;20.20;99.90;;;;;;5053198;28;20177;-58
2022/09/01 06:19:07;;;;;;;0.00;0.00;;;20.60;99.90;;;;;;5053020;28;20653;-58
2022/09/01 06:21:33;;;;;;;0.00;0.00;;;21.00;99.90;;;;;;5052972;28;20680;-58
2022/09/01 06:23:58;;;;;;;0.00;0.00;;;21.20;99.90;;;;;;5052849;28;20180;-58
2022/09/01 06:26:28;;;;;;;0.00;0.00;;;21.40;99.90;;;;;;5053006;28;20177;-58
2022/09/01 06:28:56;;;;;;;0.00;0.00;;;21.60;99.90;;;;;;5052724;28;20181;-58
2022/09/01 06:31:23;;;;;;;0.00;0.00;;;21.70;99.90;;;;;;5052859;28;20174;-58
2022/09/01 06:33:54;;;;;;;0.32;0.32;;;21.80;99.90;;;;;;5052603;28;20197;-58
2022/09/01 06:36:22;;;;;;;0.00;0.00;;;21.90;99.90;;;;;;5052621;28;20275;-58
2022/09/01 06:38:51;;;;;;;0.00;0.00;;;22.10;99.90;;;;;;5052744;28;20177;-58
2022/09/01 06:41:18;;;;;;;0.00;0.00;;;22.30;99.90;;;;;;5052534;28;20313;-58
2022/09/01 06:43:52;;;;;;;0.00;0.00;;;22.30;99.90;;;;;;5052601;28;20188;-59
2022/09/01 06:46:18;;;;;;;0.00;0.00;;;22.50;99.80;;;;;;5052597;28;20181;-58
2022/09/01 06:48:45;;;;;;;0.00;0.00;;;22.90;99.40;;;;;;5052604;28;20178;-59
2022/09/01 06:51:19;;;;;;;0.00;0.00;;;23.10;98.60;;;;;;5052355;28;20613;-58
2022/09/01 06:53:50;;;;;;;0.00;0.00;;;23.20;98.20;;;;;;5052379;28;20177;-58
2022/09/01 06:56:17;;;;;;;0.00;0.00;;;23.20;97.90;;;;;;5052446;28;20176;-58
2022/09/01 06:58:47;;;;;;;0.00;0.00;;;22.60;97.50;;;;;;5052330;28;20177;-59
2022/09/01 07:01:14;;;;;;;0.00;0.00;;;22.00;98.50;;;;;;5052111;28;20221;-58
2022/09/01 07:03:42;;;;;;;0.00;0.00;;;21.80;99.20;;;;;;5052300;28;20322;-58
2022/09/01 07:06:09;;;;;;;0.00;0.00;;;21.80;99.30;;;;;;5052347;28;20207;-58
2022/09/01 07:08:38;;;;;;;0.20;0.20;;;21.80;99.40;;;;;;5052195;28;20184;-58
2022/09/01 07:11:06;;;;;;;0.00;0.00;;;21.60;99.70;;;;;;5052210;28;20189;-59
2022/09/01 07:13:34;;;;;;;0.00;0.00;;;21.40;99.90;;;;;;5052022;28;20645;-58
2022/09/01 07:16:00;;;;;;;0.10;0.10;;;21.20;99.90;;;;;;5052014;28;20223;-58
2022/09/01 07:18:27;;;;;;;0.00;0.00;;;21.30;99.90;;;;;;5052033;28;20166;-58
2022/09/01 07:20:53;;;;;;;0.00;0.00;;;21.50;99.90;;;;;;5051792;28;20237;-58
2022/09/01 07:23:20;;;;;;;0.00;0.00;;;21.40;99.90;;;;;;5051843;28;20185;-58
2022/09/01 07:25:48;;;;;;;0.00;0.00;;;21.20;99.90;;;;;;5051698;28;20169;-58
2022/09/01 07:28:17;;;;;;;0.00;0.00;;;21.20;99.90;;;;;;5052082;28;20208;-58
2022/09/01 07:30:47;;;;;;;0.00;0.00;;;21.10;99.90;;;;;;5051730;28;20173;-58
2022/09/01 07:33:14;;;;;;;0.00;0.00;;;21.00;99.90;;;;;;5051959;28;20288;-57
2022/09/01 07:35:41;;;;;;;0.00;0.00;;;20.80;99.90;;;;;;5051658;28;20544;-58
2022/09/01 07:38:08;;;;;;;0.00;0.00;;;20.70;99.90;;;;;;5051993;28;20644;-58
2022/09/01 07:40:37;;;;;;;0.00;0.00;;;20.60;99.90;;;;;;5051732;28;20573;-58
2022/09/01 07:43:13;;;;;;;0.00;0.00;;;20.70;99.90;;;;;;5051928;28;20547;-59
2022/09/01 07:45:46;;;;;;;0.00;0.00;;;20.90;99.90;;;;;;5051654;28;20181;-58
2022/09/01 07:48:13;;;;;;;12.52;0.57;;;21.30;99.90;;;;;;5051874;28;20185;-58
2022/09/01 07:50:46;;;;;;;0.00;0.00;;;22.00;99.90;;;;;;5051440;28;20276;-59
2022/09/01 07:53:14;;;;;;;0.00;0.00;;;22.80;99.90;;;;;;5051714;28;20181;-59
2022/09/01 07:55:40;;;;;;;0.00;0.00;;;23.40;99.00;;;;;;5051517;28;20582;-58
2022/09/01 07:58:05;;;;;;;0.00;0.00;;;23.80;97.90;;;;;;5051679;28;20173;-59
2022/09/01 08:00:32;;;;;;;0.00;0.00;;;24.20;96.80;;;;;;5051587;28;20227;-59
2022/09/01 08:02:58;;;;;;;0.00;0.00;;;24.50;96.80;;;;;;5051318;28;20232;-58
2022/09/01 08:05:25;;;;;;;0.00;0.00;;;24.60;95.80;;;;;;5051563;28;20185;-59
2022/09/01 08:07:52;;;;;;;0.00;0.00;;;24.40;95.20;;;;;;5051546;28;20181;-59
2022/09/01 08:10:17;;;;;;;0.00;0.00;;;23.90;95.60;;;;;;5051351;28;20660;-59
2022/09/01 08:12:43;;;;;;;0.00;0.00;;;23.60;96.20;;;;;;5051497;28;20264;-59
2022/09/01 08:15:11;;;;;;;0.38;0.10;;;23.30;96.70;;;;;;5051584;28;20189;-59
2022/09/01 08:17:37;;;;;;;0.03;0.03;;;23.10;96.80;;;;;;5051280;28;20185;-60
2022/09/01 08:20:07;;;;;;;0.00;0.00;;;22.90;97.00;;;;;;5051445;28;20187;-59
2022/09/01 08:22:32;;;;;;;0.00;0.00;;;22.70;96.90;;;;;;5051403;28;20269;-60
2022/09/01 08:24:58;;;;;;;0.00;0.00;;;22.40;97.60;;;;;;5051510;28;20260;-59
2022/09/01 08:27:23;;;;;;;0.00;0.00;;;22.20;97.80;;;;;;5051354;28;20235;-59
2022/09/01 08:29:49;;;;;;;0.00;0.00;;;22.20;98.10;;;;;;5051253;28;20181;-59
2022/09/01 08:32:14;;;;;;;0.00;0.00;;;22.00;98.00;;;;;;5051357;28;20173;-59
2022/09/01 08:34:42;;;;;;;0.00;0.00;;;22.10;98.50;;;;;;5051152;28;20173;-60
2022/09/01 08:37:08;;;;;;;0.00;0.00;;;22.40;98.70;;;;;;5053966;28;20177;-59
2022/09/01 08:39:33;;;;;;;0.00;0.00;;;22.60;97.80;;;;;;5053911;28;20180;-60
2022/09/01 08:42:20;;;;;;;0.03;0.03;;;23.20;97.70;;;;;;5054877;28;20217;-59
2022/09/01 08:44:56;;;;;;;0.00;0.00;;;24.10;97.10;;;;;;5055103;28;20214;-59
2022/09/01 08:47:22;;;;;;;0.10;0.10;;;25.10;94.80;;;;;;5055021;28;20185;-59
2022/09/01 08:49:50;;;;;;;0.00;0.00;;;25.50;93.30;;;;;;5054913;28;20696;-60
2022/09/01 08:52:40;;;;;;;0.00;0.00;;;26.00;93.50;;;;;;5054661;28;20185;-60
2022/09/01 08:55:39;;;;;;;0.00;0.00;;;26.30;90.70;;;;;;5054901;28;20173;-60
2022/09/01 08:58:05;;;;;;;0.00;0.00;;;26.10;89.00;;;;;;5054741;28;20261;-59
2022/09/01 09:00:42;;;;;;;0.00;0.00;;;25.70;88.70;;;;;;5054420;28;20573;-59
2022/09/01 09:03:32;;;;;;;0.00;0.00;;;25.40;89.30;;;;;;5054489;28;20232;-59
2022/09/01 09:06:23;;;;;;;0.00;0.00;;;25.20;89.50;;;;;;5054523;28;20165;-59
2022/09/01 09:09:02;;;;;;;0.00;0.00;;;24.90;89.40;;;;;;5054556;28;20767;-59
2022/09/01 09:11:57;;;;;;;0.00;0.00;;;24.60;90.40;;;;;;5054584;28;20200;-59
2022/09/01 09:14:49;;;;;;;0.00;0.00;;;24.40;90.60;;;;;;5054531;28;20181;-60
2022/09/01 09:17:19;;;;;;;0.00;0.00;;;24.70;90.80;;;;;;5054472;28;20178;-59
2022/09/01 09:19:45;;;;;;;0.00;0.00;;;25.20;89.80;;;;;;5054357;28;20268;-60
2022/09/01 09:22:14;;;;;;;0.00;0.00;;;25.60;89.30;;;;;;5054315;28;20271;-59
2022/09/01 09:24:57;;;;;;;0.00;0.00;;;25.90;86.90;;;;;;5054131;28;20253;-59
2022/09/01 09:27:39;;;;;;;0.00;0.00;;;26.00;85.90;;;;;;5054238;28;20204;-59
2022/09/01 09:30:26;;;;;;;0.00;0.00;;;25.70;83.50;;;;;;5054320;28;20253;-59
2022/09/01 09:32:59;;;;;;;0.00;0.00;;;25.50;83.60;;;;;;5054070;28;20254;-60
2022/09/01 09:35:33;;;;;;;0.00;0.00;;;25.40;84.20;;;;;;5054083;28;20181;-60
2022/09/01 09:38:18;;;;;;;0.00;0.00;;;25.40;86.30;;;;;;5053982;28;20185;-60
2022/09/01 09:41:04;;;;;;;0.00;0.00;;;25.50;86.40;;;;;;5053808;28;20209;-60
2022/09/01 09:43:34;;;;;;;0.00;0.00;;;25.50;85.80;;;;;;5053834;28;20260;-60
2022/09/01 09:46:25;;;;;;;0.00;0.00;;;25.30;85.80;;;;;;5053922;28;20177;-60
2022/09/01 09:49:15;;;;;;;0.00;0.00;;;25.10;86.40;;;;;;5053764;28;20174;-59
2022/09/01 09:51:44;;;;;;;0.00;0.00;;;24.90;87.20;;;;;;5053496;28;20654;-60
2022/09/01 09:54:20;;;;;;;0.00;0.00;;;24.80;86.80;;;;;;5053735;28;20185;-60
2022/09/01 09:56:47;;;;;;;0.00;0.00;;;24.60;86.80;;;;;;5053579;28;20267;-59
2022/09/01 09:59:25;;;;;;;0.00;0.00;;;24.40;87.70;;;;;;5053493;28;20189;-59
2022/09/01 10:02:12;;;;;;;0.00;0.00;;;24.30;88.60;;;;;;5053237;28;20251;-59
2022/09/01 10:04:38;;;;;;;0.00;0.00;;;24.50;88.50;;;;;;5053309;28;20603;-59
2022/09/01 10:07:25;;;;;;;0.00;0.00;;;24.70;89.00;;;;;;5053484;28;20701;-59
2022/09/01 10:09:53;;;;;;;0.00;0.00;;;24.80;88.90;;;;;;5053473;28;20177;-59
2022/09/01 10:12:19;;;;;;;0.00;0.00;;;24.70;87.80;;;;;;5053238;28;20212;-59
2022/09/01 10:14:52;;;;;;;0.00;0.00;;;24.70;88.00;;;;;;5053154;28;20209;-60
2022/09/01 10:17:24;;;;;;;0.00;0.00;;;24.80;87.50;;;;;;5053234;28;20257;-59
2022/09/01 10:19:56;;;;;;;0.00;0.00;;;25.00;86.60;;;;;;5053170;28;20645;-59
2022/09/01 10:22:23;;;;;;;0.00;0.00;;;25.30;86.20;;;;;;5053097;28;20223;-59
2022/09/01 10:24:49;;;;;;;0.00;0.00;;;25.90;86.60;;;;;;5053012;28;20257;-60
2022/09/01 10:27:22;;;;;;;0.00;0.00;;;26.70;82.60;;;;;;5053108;28;20271;-59
2022/09/01 10:30:14;;;;;;;0.00;0.00;;;27.10;79.60;;;;;;5052911;28;20650;-59
2022/09/01 10:33:00;;;;;;;0.00;0.00;;;27.50;77.70;;;;;;5052850;28;20174;-59
2022/09/01 10:35:29;;;;;;;0.00;0.00;;;27.70;76.10;;;;;;5052876;28;20644;-60
2022/09/01 10:37:57;;;;;;;0.00;0.00;;;27.60;74.50;;;;;;5052643;28;20181;-60
2022/09/01 10:40:27;;;;;;;0.00;0.00;;;27.30;74.10;;;;;;5052661;28;20251;-59
2022/09/01 10:42:59;;;;;;;0.00;0.00;;;27.20;75.50;;;;;;5052577;28;20197;-60
2022/09/01 10:45:32;;;;;;;0.00;0.00;;;27.40;75.10;;;;;;5052761;28;20268;-59
2022/09/01 10:48:28;;;;;;;0.00;0.00;;;27.40;74.70;;;;;;5052522;28;20177;-59
2022/09/01 10:51:13;;;;;;;0.00;0.00;;;27.00;73.50;;;;;;5052498;28;20185;-59
2022/09/01 10:53:43;;;;;;;0.00;0.00;;;26.90;75.10;;;;;;5052122;28;20181;-60
2022/09/01 10:56:23;;;;;;;0.10;0.10;;;27.30;73.60;;;;;;5052472;28;20181;-60
2022/09/01 10:59:02;;;;;;;0.00;0.00;;;27.50;75.20;;;;;;5051762;28;20172;-59
2022/09/01 11:01:40;;;;;;;0.00;0.00;;;27.80;72.90;;;;;;5052167;28;20263;-61
2022/09/01 11:04:11;;;;;;;0.00;0.00;;;27.80;72.40;;;;;;5052237;28;20231;-59
2022/09/01 11:06:40;;;;;;;0.00;0.00;;;27.50;72.40;;;;;;5052053;28;20223;-60
2022/09/01 11:09:21;;;;;;;0.00;0.00;;;27.10;71.30;;;;;;5052116;28;20663;-59
2022/09/01 11:12:20;;;;;;;0.00;0.00;;;26.80;72.80;;;;;;5052152;28;20177;-59
2022/09/01 11:14:52;;;;;;;0.00;0.00;;;26.80;73.50;;;;;;5052088;28;20204;-59
2022/09/01 11:17:17;;;;;;;0.00;0.00;;;26.70;72.60;;;;;;5052062;28;20178;-59
2022/09/01 11:19:55;;;;;;;0.00;0.00;;;26.60;73.70;;;;;;5051954;28;20177;-60
2022/09/01 11:22:37;;;;;;;0.00;0.00;;;26.60;74.10;;;;;;5051987;28;20212;-59
2022/09/01 11:25:40;;;;;;;0.00;0.00;;;26.80;75.20;;;;;;5052001;28;20181;-59
2022/09/01 11:28:14;;;;;;;0.00;0.00;;;26.90;72.50;;;;;;5052004;28;20243;-59
2022/09/01 11:31:07;;;;;;;0.00;0.00;;;26.70;71.80;;;;;;5051695;28;20204;-60
2022/09/01 11:33:58;;;;;;;0.00;0.00;;;26.50;73.60;;;;;;5051711;28;20181;-60
2022/09/01 11:36:35;;;;;;;0.00;0.00;;;26.40;73.50;;;;;;5051756;28;20196;-59
2022/09/01 11:39:21;;;;;;;0.00;0.00;;;26.40;74.50;;;;;;5051780;28;20236;-59
2022/09/01 11:41:52;;;;;;;0.00;0.00;;;26.60;73.80;;;;;;5051607;28;20551;-60
2022/09/01 11:44:29;;;;;;;0.00;0.00;;;26.70;72.60;;;;;;5051576;28;20530;-60
2022/09/01 11:47:01;;;;;;;0.00;0.00;;;26.80;72.00;;;;;;5051730;28;20185;-60
2022/09/01 11:49:38;;;;;;;0.00;0.00;;;26.90;71.00;;;;;;5051590;28;20181;-59
2022/09/01 11:52:04;;;;;;;0.00;0.00;;;27.00;71.10;;;;;;5051698;28;20185;-60
2022/09/01 11:54:39;;;;;;;0.00;0.00;;;27.10;73.30;;;;;;5051618;28;20185;-60
2022/09/01 11:57:29;;;;;;;0.00;0.00;;;27.30;70.20;;;;;;5051736;28;20177;-60
2022/09/01 11:59:57;;;;;;;0.00;0.00;;;27.30;70.40;;;;;;5051434;28;20182;-60
2022/09/01 12:02:26;;;;;;;0.00;0.00;;;27.30;69.80;;;;;;5051250;28;20631;-59
2022/09/01 12:04:55;;;;;;;0.00;0.00;;;27.40;68.70;;;;;;5051319;28;20181;-60
2022/09/01 12:07:38;;;;;;;0.00;0.00;;;27.50;68.50;;;;;;5051489;28;20204;-60
2022/09/01 12:10:14;;;;;;;0.00;0.00;;;27.40;67.90;;;;;;5051637;28;20268;-60
2022/09/01 12:12:39;;;;;;;0.00;0.00;;;27.40;68.50;;;;;;5055000;28;20181;-60
2022/09/01 12:15:17;;;;;;;0.00;0.00;;;27.30;67.40;;;;;;5055602;28;20222;-60
2022/09/01 12:17:43;;;;;;;0.00;0.00;;;27.30;68.50;;;;;;5055446;28;20181;-60
2022/09/01 12:20:28;;;;;;;0.00;0.00;;;27.30;69.20;;;;;;5055436;28;20187;-60
2022/09/01 12:22:54;;;;;;;0.00;0.00;;;27.30;68.00;;;;;;5055343;28;20546;-59
2022/09/01 12:25:24;;;;;;;0.00;0.00;;;27.30;68.30;;;;;;5055236;28;20712;-60
2022/09/01 12:27:50;;;;;;;0.00;0.00;;;27.40;67.90;;;;;;5055313;28;20189;-60
2022/09/01 12:30:17;;;;;;;0.00;0.00;;;27.30;66.50;;;;;;5055245;28;20517;-60
2022/09/01 12:32:43;;;;;;;0.00;0.00;;;27.30;65.40;;;;;;5055224;28;20169;-60
2022/09/01 12:35:21;;;;;;;0.00;0.00;;;27.20;65.00;;;;;;5055181;28;20187;-60
2022/09/01 12:37:47;;;;;;;0.00;0.00;;;27.10;65.30;;;;;;5055174;28;20230;-60
2022/09/01 12:40:31;;;;;;;0.00;0.00;;;27.00;66.70;;;;;;5055227;28;20178;-61
2022/09/01 12:42:57;;;;;;;0.00;0.00;;;27.10;66.20;;;;;;5055002;28;20185;-60
2022/09/01 12:45:44;;;;;;;0.00;0.00;;;27.10;67.50;;;;;;5054955;28;20230;-60
2022/09/01 12:48:24;;;;;;;0.00;0.00;;;27.20;66.40;;;;;;5055059;28;20200;-60
2022/09/01 12:50:51;;;;;;;0.00;0.00;;;27.40;65.80;;;;;;5054812;28;20693;-61
2022/09/01 12:53:19;;;;;;;0.00;0.00;;;27.60;65.10;;;;;;5054767;28;20268;-60
2022/09/01 12:55:58;;;;;;;0.00;0.00;;;27.90;65.70;;;;;;5054796;28;20220;-60
2022/09/01 12:58:25;;;;;;;0.00;0.00;;;28.10;64.90;;;;;;5054728;28;20652;-61
2022/09/01 13:01:04;;;;;;;0.00;0.00;;;28.50;64.40;;;;;;5054677;28;20220;-60
2022/09/01 13:03:30;;;;;;;0.00;0.00;;;28.80;64.50;;;;;;5054810;28;20600;-61
2022/09/01 13:05:58;;;;;;;0.00;0.00;;;29.00;62.80;;;;;;5054526;28;20178;-60
2022/09/01 13:08:34;;;;;;;0.00;0.00;;;28.90;61.70;;;;;;5054757;28;20173;-61
2022/09/01 13:11:13;;;;;;;0.00;0.00;;;28.60;61.60;;;;;;5054607;28;20227;-61